Time;durP1;ratioP1;P1;durP2;ratioP2;P2;SDS_P1;SDS_P2;PMS_P1;PMS_P2;Temp;Humidity;BMP_temperature;BMP_pressure;BME280_temperature;BME280_humidity;BME280_pressure;Samples;Min_cycle;Max_cycle;Signal;HPM_P1;HPM_P2
2023/03/20 04:59:52;;;;;;;2.60;2.50;;;5.50;99.90;;;;;;5089857;23;20230;-64
2023/03/20 05:02:19;;;;;;;2.70;2.50;;;5.50;99.90;;;;;;4995416;28;20222;-65
2023/03/20 05:04:46;;;;;;;2.00;2.00;;;5.50;99.90;;;;;;4996283;28;20249;-64
2023/03/20 05:07:12;;;;;;;2.20;1.92;;;5.50;99.90;;;;;;4995714;28;20202;-64
2023/03/20 05:09:39;;;;;;;2.20;2.10;;;5.50;99.90;;;;;;4995622;28;20230;-63
2023/03/20 05:12:06;;;;;;;2.08;1.98;;;5.50;99.90;;;;;;4996214;28;20206;-64
2023/03/20 05:14:33;;;;;;;1.77;1.75;;;5.50;99.90;;;;;;4996403;28;20685;-65
2023/03/20 05:17:01;;;;;;;2.17;2.08;;;5.50;99.90;;;;;;4995443;28;20206;-65
2023/03/20 05:19:28;;;;;;;1.83;1.77;;;5.50;99.90;;;;;;4995359;28;20226;-65
2023/03/20 05:21:54;;;;;;;2.00;1.95;;;5.60;99.90;;;;;;4995149;28;20685;-65
2023/03/20 05:24:21;;;;;;;1.73;1.73;;;5.50;99.90;;;;;;4995274;28;20210;-65
2023/03/20 05:26:48;;;;;;;2.35;2.28;;;5.60;99.90;;;;;;4995651;28;20203;-65
2023/03/20 05:29:14;;;;;;;2.30;2.20;;;5.60;99.90;;;;;;4994928;28;20693;-65
2023/03/20 05:31:41;;;;;;;2.45;2.35;;;5.60;99.90;;;;;;4995284;28;20203;-65
2023/03/20 05:34:09;;;;;;;2.35;2.28;;;5.60;99.90;;;;;;4995357;28;20199;-64
2023/03/20 05:36:36;;;;;;;4.47;3.10;;;5.70;99.90;;;;;;4995234;28;20203;-64
2023/03/20 05:39:03;;;;;;;3.10;2.90;;;5.70;99.90;;;;;;4995066;28;20395;-64
2023/03/20 05:41:30;;;;;;;2.92;2.83;;;5.70;99.90;;;;;;4995074;28;20206;-64
2023/03/20 05:43:56;;;;;;;3.13;3.00;;;5.70;99.90;;;;;;4994117;28;20606;-64
2023/03/20 05:46:25;;;;;;;3.72;3.42;;;5.70;99.90;;;;;;4994966;28;20213;-66
2023/03/20 05:48:51;;;;;;;2.83;2.72;;;5.70;99.90;;;;;;4994862;28;20222;-65
2023/03/20 05:51:19;;;;;;;2.45;2.35;;;5.70;99.90;;;;;;4994989;28;20640;-64
2023/03/20 05:53:46;;;;;;;2.00;2.00;;;5.70;99.90;;;;;;4995091;28;20290;-67
2023/03/20 05:56:13;;;;;;;1.40;1.40;;;5.80;99.90;;;;;;4994809;28;20199;-65
2023/03/20 05:58:41;;;;;;;1.35;1.35;;;5.80;99.90;;;;;;4994942;28;20226;-65
2023/03/20 06:01:07;;;;;;;1.50;1.50;;;5.90;99.90;;;;;;4995675;28;20214;-64
2023/03/20 06:03:35;;;;;;;1.20;1.20;;;5.90;99.90;;;;;;4996410;28;20544;-64
2023/03/20 06:06:02;;;;;;;1.23;1.23;;;5.90;99.90;;;;;;4996242;28;20203;-64
2023/03/20 06:08:30;;;;;;;1.63;1.52;;;6.00;99.90;;;;;;4995782;28;20699;-64
2023/03/20 06:10:56;;;;;;;1.58;1.58;;;6.00;99.90;;;;;;4995698;28;20222;-64
2023/03/20 06:13:23;;;;;;;1.80;1.70;;;6.00;99.90;;;;;;4994745;28;20203;-64
2023/03/20 11:31:33;;;;;;;0.70;0.70;;;11.20;99.90;;;;;;5071680;23;20231;-64
2023/03/20 11:34:11;;;;;;;1.25;1.25;;;11.00;99.90;;;;;;4993453;28;20218;-63
2023/03/20 11:36:40;;;;;;;0.90;0.90;;;10.80;99.90;;;;;;4993416;28;20183;-63
2023/03/20 11:39:11;;;;;;;0.60;0.60;;;10.80;99.90;;;;;;4993013;28;20768;-63
2023/03/20 11:44:25;;;;;;;0.80;0.80;;;11.00;99.90;;;;;;4957455;29;20219;-66
2023/03/20 11:46:57;;;;;;;0.73;0.73;;;11.00;99.90;;;;;;4958429;29;20199;-66
2023/03/20 11:49:26;;;;;;;0.75;0.75;;;11.10;99.90;;;;;;4958222;29;20196;-66
2023/03/20 11:51:55;;;;;;;0.77;0.77;;;11.20;99.90;;;;;;4958148;28;20200;-66
2023/03/20 11:54:24;;;;;;;0.93;0.93;;;11.40;99.90;;;;;;4958161;29;20212;-67
2023/03/20 11:56:53;;;;;;;0.82;0.82;;;11.60;99.90;;;;;;4958295;29;20204;-66
2023/03/20 11:59:21;;;;;;;1.77;0.90;;;11.70;99.90;;;;;;4958109;29;20299;-66
2023/03/20 12:01:51;;;;;;;0.80;0.80;;;11.80;99.90;;;;;;4958806;28;20226;-66
2023/03/20 12:04:26;;;;;;;0.80;0.80;;;11.80;99.90;;;;;;4960768;29;20204;-66
2023/03/20 12:06:58;;;;;;;1.95;0.80;;;11.60;99.90;;;;;;4962703;29;20739;-66
2023/03/20 12:09:35;;;;;;;0.70;0.70;;;11.70;99.90;;;;;;4959801;29;20547;-66
2023/03/20 12:12:07;;;;;;;0.80;0.80;;;11.80;99.90;;;;;;4959054;28;20235;-66
2023/03/20 12:14:42;;;;;;;0.68;0.68;;;12.00;99.90;;;;;;4959728;29;20189;-66
2023/03/20 12:17:27;;;;;;;0.73;0.60;;;12.10;99.90;;;;;;4957864;29;20553;-66
2023/03/20 12:20:02;;;;;;;0.95;0.80;;;12.20;99.90;;;;;;4960072;29;20578;-66
2023/03/20 12:22:34;;;;;;;0.60;0.60;;;12.30;99.90;;;;;;4959475;28;20223;-66
2023/03/20 12:25:09;;;;;;;1.08;0.90;;;12.50;99.90;;;;;;4957985;29;20188;-65
2023/03/20 12:27:37;;;;;;;0.60;0.60;;;12.40;99.90;;;;;;4957757;29;20192;-66
2023/03/20 12:30:10;;;;;;;0.50;0.50;;;12.30;99.90;;;;;;4958296;29;20723;-66
2023/03/20 12:32:42;;;;;;;1.25;0.75;;;12.30;99.90;;;;;;4958075;28;20239;-66
2023/03/20 12:35:16;;;;;;;0.63;0.63;;;12.20;99.90;;;;;;4959432;29;20196;-66
2023/03/20 12:37:44;;;;;;;0.60;0.60;;;12.00;99.90;;;;;;4960747;29;20188;-66
2023/03/20 12:40:16;;;;;;;4.32;0.50;;;12.00;98.00;;;;;;4958867;29;20317;-66
2023/03/20 12:42:52;;;;;;;0.50;0.50;;;11.90;99.90;;;;;;4957479;28;20239;-67
2023/03/20 12:45:22;;;;;;;0.40;0.40;;;11.90;99.90;;;;;;4957337;29;20195;-66
2023/03/20 12:48:15;;;;;;;0.65;0.65;;;11.90;99.90;;;;;;4957394;29;20211;-65
2023/03/20 12:50:50;;;;;;;0.60;0.60;;;12.10;99.90;;;;;;4956950;29;20180;-66
2023/03/20 12:53:31;;;;;;;0.50;0.50;;;12.20;99.90;;;;;;4956586;28;20227;-66
2023/03/20 12:56:08;;;;;;;0.57;0.57;;;12.10;99.90;;;;;;4957177;29;20191;-66
2023/03/20 12:58:40;;;;;;;0.70;0.70;;;12.00;99.40;;;;;;4961471;29;20192;-67
2023/03/20 13:01:13;;;;;;;0.50;0.50;;;11.90;98.10;;;;;;4959732;29;20220;-67
2023/03/20 13:04:02;;;;;;;0.70;0.70;;;12.00;98.60;;;;;;4957460;28;20595;-66
2023/03/20 13:06:42;;;;;;;0.90;0.50;;;12.20;99.90;;;;;;4915104;29;20668;-66
2023/03/20 13:09:37;;;;;;;0.47;0.47;;;12.50;99.90;;;;;;4956846;29;20191;-66
2023/03/20 13:12:12;;;;;;;0.75;0.40;;;12.70;96.90;;;;;;4956690;28;20319;-66
2023/03/20 13:14:45;;;;;;;0.40;0.40;;;12.80;93.50;;;;;;4956403;29;20559;-66
2023/03/20 13:17:19;;;;;;;2.25;0.60;;;12.80;90.90;;;;;;4956703;29;20196;-66
2023/03/20 13:19:55;;;;;;;0.47;0.47;;;12.80;91.80;;;;;;4956754;29;20215;-67
2023/03/20 13:22:31;;;;;;;0.40;0.40;;;12.80;90.70;;;;;;4956323;28;20227;-66
2023/03/20 13:25:06;;;;;;;1.02;0.40;;;12.70;90.30;;;;;;4956332;29;20579;-66
2023/03/20 13:27:41;;;;;;;0.40;0.40;;;12.60;93.20;;;;;;4956501;29;20183;-66
2023/03/20 13:30:16;;;;;;;0.50;0.50;;;12.70;95.50;;;;;;4956524;29;20194;-66
2023/03/20 13:32:56;;;;;;;1.30;0.63;;;12.90;91.80;;;;;;4956440;28;20231;-67
2023/03/20 13:35:39;;;;;;;0.52;0.52;;;12.90;88.30;;;;;;4956786;29;20196;-67
2023/03/20 13:38:14;;;;;;;0.50;0.50;;;12.90;88.90;;;;;;4956263;29;20555;-66
2023/03/20 13:40:43;;;;;;;0.57;0.57;;;12.70;90.00;;;;;;4956590;29;20203;-66
2023/03/20 13:43:22;;;;;;;0.75;0.40;;;12.70;90.10;;;;;;4956031;28;20236;-66
2023/03/20 13:45:52;;;;;;;0.40;0.30;;;12.70;92.60;;;;;;4956298;29;20280;-66
2023/03/20 13:48:28;;;;;;;0.50;0.50;;;12.80;91.50;;;;;;4956526;29;20238;-66
2023/03/20 13:51:01;;;;;;;2.22;0.50;;;12.80;92.10;;;;;;4956237;29;20188;-66
2023/03/20 13:53:38;;;;;;;1.30;0.63;;;13.10;92.10;;;;;;4956011;28;20235;-66
2023/03/20 13:56:12;;;;;;;0.50;0.50;;;13.10;91.10;;;;;;4955944;29;20245;-66
2023/03/20 13:58:59;;;;;;;0.65;0.65;;;13.20;90.10;;;;;;4956021;29;20184;-66
2023/03/20 14:01:34;;;;;;;0.43;0.43;;;13.20;90.60;;;;;;4955923;29;20204;-67
2023/03/20 14:04:03;;;;;;;0.50;0.50;;;13.40;92.90;;;;;;4955548;28;20710;-67
2023/03/20 14:06:47;;;;;;;0.40;0.40;;;13.40;84.10;;;;;;4955150;29;20220;-66
2023/03/20 14:09:35;;;;;;;0.77;0.50;;;13.20;84.90;;;;;;4955951;29;20188;-66
2023/03/20 14:12:08;;;;;;;0.52;0.50;;;12.90;87.10;;;;;;4955503;28;20544;-66
2023/03/20 14:14:41;;;;;;;0.30;0.30;;;12.80;92.00;;;;;;4955872;29;20188;-65
2023/03/20 14:17:15;;;;;;;0.40;0.40;;;13.00;91.30;;;;;;4955549;29;20532;-66
2023/03/20 14:19:42;;;;;;;0.80;0.32;;;13.10;91.50;;;;;;4955844;29;20208;-67
2023/03/20 14:22:15;;;;;;;0.55;0.47;;;13.20;87.40;;;;;;4955917;28;20224;-66
2023/03/20 14:24:50;;;;;;;0.63;0.63;;;13.30;91.20;;;;;;4956088;29;20192;-67
2023/03/20 14:27:20;;;;;;;0.52;0.52;;;13.40;87.70;;;;;;4955879;29;20220;-66
2023/03/20 14:29:50;;;;;;;0.50;0.43;;;13.50;86.10;;;;;;4955976;29;20228;-66
2023/03/20 14:32:35;;;;;;;0.30;0.30;;;13.50;85.30;;;;;;4955832;28;20626;-66
2023/03/20 14:35:22;;;;;;;0.40;0.40;;;13.50;86.90;;;;;;4956786;29;20188;-66
2023/03/20 14:38:25;;;;;;;0.30;0.30;;;13.50;88.20;;;;;;4958631;29;20200;-66
2023/03/20 14:41:01;;;;;;;0.30;0.30;;;13.50;87.20;;;;;;4949334;29;20243;-68
2023/03/20 14:43:55;;;;;;;0.35;0.35;;;13.40;84.20;;;;;;4957583;28;20235;-66
2023/03/20 14:46:27;;;;;;;0.50;0.50;;;13.30;84.90;;;;;;4958625;29;20275;-65
2023/03/20 14:48:55;;;;;;;0.52;0.52;;;13.10;84.60;;;;;;4955755;29;20189;-66
2023/03/20 14:51:37;;;;;;;0.50;0.50;;;13.00;90.20;;;;;;4957024;29;20207;-66
2023/03/20 14:54:23;;;;;;;0.32;0.32;;;13.00;88.80;;;;;;4956121;28;20232;-66
2023/03/20 14:56:52;;;;;;;0.55;0.40;;;13.00;90.30;;;;;;4955494;29;20188;-66
2023/03/20 14:59:21;;;;;;;0.30;0.30;;;13.00;90.70;;;;;;4955336;29;20200;-66
2023/03/20 15:01:54;;;;;;;0.50;0.50;;;13.00;92.60;;;;;;4955149;28;20299;-66
2023/03/20 15:04:32;;;;;;;0.50;0.50;;;13.10;91.90;;;;;;4955302;29;20226;-65
2023/03/20 15:07:03;;;;;;;0.60;0.60;;;13.00;91.90;;;;;;4954919;29;20641;-65
2023/03/20 15:09:34;;;;;;;0.40;0.40;;;12.90;93.70;;;;;;4954968;29;20556;-66
2023/03/20 15:12:03;;;;;;;0.50;0.50;;;12.90;94.30;;;;;;4955136;28;20184;-66
2023/03/20 15:14:35;;;;;;;0.60;0.60;;;12.80;91.80;;;;;;4955137;29;20204;-66
2023/03/20 15:17:03;;;;;;;1.70;0.60;;;12.80;93.80;;;;;;4957190;28;20230;-66
2023/03/20 15:19:32;;;;;;;0.50;0.50;;;12.90;93.40;;;;;;4958829;29;20204;-66
2023/03/20 15:21:59;;;;;;;0.40;0.40;;;13.00;93.50;;;;;;4958845;28;20680;-66
2023/03/20 15:24:29;;;;;;;0.40;0.40;;;13.00;92.20;;;;;;4958868;29;20246;-66
2023/03/20 15:26:59;;;;;;;0.45;0.45;;;13.10;93.80;;;;;;4958918;29;20211;-66
2023/03/20 15:29:29;;;;;;;1.40;0.57;;;13.20;93.30;;;;;;4958911;29;20200;-65
2023/03/20 15:31:57;;;;;;;0.60;0.60;;;13.10;91.20;;;;;;4958782;28;20199;-65
2023/03/20 15:34:26;;;;;;;0.50;0.50;;;13.00;95.80;;;;;;4958723;29;20211;-65
2023/03/20 15:36:56;;;;;;;1.17;0.50;;;13.10;97.20;;;;;;4958570;29;20204;-65
2023/03/20 15:39:25;;;;;;;0.50;0.50;;;13.10;93.50;;;;;;4958695;29;20239;-65
2023/03/20 15:41:55;;;;;;;0.55;0.55;;;13.00;91.70;;;;;;4958452;28;20227;-65
2023/03/20 15:44:24;;;;;;;0.50;0.50;;;12.90;94.50;;;;;;4958604;29;20204;-66
2023/03/20 15:46:56;;;;;;;0.50;0.50;;;12.70;94.10;;;;;;4958567;29;20209;-66
2023/03/20 15:49:23;;;;;;;0.55;0.52;;;12.70;96.50;;;;;;4958858;29;20189;-66
2023/03/20 15:51:51;;;;;;;0.50;0.50;;;12.60;96.50;;;;;;4958325;28;20204;-66
2023/03/20 15:54:19;;;;;;;0.40;0.40;;;12.50;98.50;;;;;;4958299;29;20188;-65
2023/03/20 15:56:48;;;;;;;1.17;0.55;;;12.50;97.90;;;;;;4958522;29;20208;-66
2023/03/20 15:59:17;;;;;;;0.50;0.50;;;12.30;98.70;;;;;;4958017;29;20207;-65
2023/03/20 16:01:45;;;;;;;0.45;0.45;;;12.20;99.50;;;;;;4958102;28;20227;-65
2023/03/20 16:04:15;;;;;;;0.60;0.60;;;12.20;99.90;;;;;;4958259;29;20200;-65
2023/03/20 16:06:47;;;;;;;0.50;0.50;;;12.00;99.90;;;;;;4958233;29;20622;-65
2023/03/20 16:09:16;;;;;;;0.88;0.60;;;11.80;99.90;;;;;;4958234;29;20212;-65
2023/03/20 16:11:46;;;;;;;0.50;0.50;;;11.80;99.90;;;;;;4957882;28;20234;-64
2023/03/20 16:14:16;;;;;;;0.50;0.50;;;11.60;99.90;;;;;;4959338;29;20204;-65
2023/03/20 16:16:46;;;;;;;0.80;0.80;;;11.50;99.90;;;;;;4958235;29;20204;-65
2023/03/20 16:19:15;;;;;;;0.60;0.60;;;11.40;99.90;;;;;;4958066;29;20192;-66
2023/03/20 16:21:46;;;;;;;0.70;0.70;;;11.30;99.90;;;;;;4957819;28;20271;-66
2023/03/20 16:24:18;;;;;;;0.65;0.60;;;11.20;99.90;;;;;;4958124;29;20279;-66
2023/03/20 16:26:49;;;;;;;0.47;0.47;;;11.10;99.90;;;;;;4958100;29;20193;-67
2023/03/20 16:29:17;;;;;;;0.50;0.50;;;11.00;99.90;;;;;;4958241;28;20292;-66
2023/03/20 16:31:49;;;;;;;0.57;0.57;;;10.90;99.90;;;;;;4957881;28;20184;-66
2023/03/20 16:34:21;;;;;;;0.70;0.70;;;10.80;99.90;;;;;;4958400;29;20227;-67
2023/03/20 16:36:57;;;;;;;0.43;0.43;;;10.70;99.90;;;;;;4957963;29;20189;-66
2023/03/20 16:39:27;;;;;;;0.85;0.85;;;10.70;99.90;;;;;;4957494;29;20640;-67
2023/03/20 16:42:11;;;;;;;0.77;0.77;;;10.70;99.90;;;;;;4956943;28;20700;-67
2023/03/20 16:44:40;;;;;;;1.00;1.00;;;10.70;99.90;;;;;;4957446;29;20195;-67
2023/03/20 16:47:18;;;;;;;0.80;0.80;;;10.70;99.90;;;;;;4957404;29;20208;-67
2023/03/20 16:50:09;;;;;;;0.70;0.70;;;10.60;99.90;;;;;;4957578;29;20200;-67
2023/03/20 16:52:38;;;;;;;0.70;0.70;;;10.60;99.90;;;;;;4957270;28;20235;-67
2023/03/20 16:55:11;;;;;;;0.70;0.70;;;10.60;99.90;;;;;;4957007;29;20714;-67
2023/03/20 16:57:38;;;;;;;0.90;0.90;;;10.50;99.90;;;;;;4957173;29;20191;-66
2023/03/20 17:00:07;;;;;;;1.02;1.02;;;10.40;99.90;;;;;;4957086;29;20200;-65
2023/03/20 17:02:39;;;;;;;1.92;1.65;;;10.40;99.90;;;;;;4957151;28;20304;-65
2023/03/20 17:05:13;;;;;;;2.13;2.03;;;10.40;99.90;;;;;;4957323;29;20184;-66
2023/03/20 17:07:41;;;;;;;2.85;1.80;;;10.30;99.90;;;;;;4957081;29;20193;-67
2023/03/20 17:10:19;;;;;;;2.40;2.30;;;10.20;99.90;;;;;;4957002;29;20205;-67
2023/03/20 17:12:48;;;;;;;1.70;1.60;;;10.20;99.90;;;;;;4956602;28;20783;-65
2023/03/20 17:15:16;;;;;;;1.52;1.42;;;10.10;99.90;;;;;;4956842;29;20208;-66
2023/03/20 17:17:43;;;;;;;1.38;1.38;;;10.00;99.90;;;;;;4956731;29;20204;-66
2023/03/20 17:20:19;;;;;;;1.33;1.25;;;9.90;99.90;;;;;;4956638;29;20208;-66
2023/03/20 17:22:48;;;;;;;0.98;0.98;;;9.90;99.90;;;;;;4956454;28;20718;-66
2023/03/20 17:25:15;;;;;;;0.93;0.93;;;9.80;99.90;;;;;;4956768;29;20204;-65
2023/03/20 17:27:42;;;;;;;2.05;1.00;;;9.70;99.90;;;;;;4956734;29;20215;-66
2023/03/20 17:30:17;;;;;;;0.70;0.70;;;9.60;99.90;;;;;;4956523;29;20207;-66
2023/03/20 17:32:43;;;;;;;0.60;0.60;;;9.50;99.90;;;;;;4956710;28;20647;-66
2023/03/20 17:35:10;;;;;;;0.50;0.50;;;9.40;99.90;;;;;;4956596;29;20204;-65
2023/03/20 17:37:39;;;;;;;0.50;0.50;;;9.30;99.90;;;;;;4956548;29;20242;-65
2023/03/20 17:40:10;;;;;;;0.45;0.45;;;9.20;99.90;;;;;;4956079;28;20211;-65
2023/03/20 17:42:38;;;;;;;0.57;0.57;;;9.20;99.90;;;;;;4956310;28;20228;-66
2023/03/20 17:45:06;;;;;;;0.50;0.50;;;9.10;99.90;;;;;;4997207;23;20229;-63
2023/03/20 17:47:32;;;;;;;0.57;0.55;;;9.10;99.90;;;;;;4994831;28;20658;-63
2023/03/20 17:49:59;;;;;;;0.60;0.60;;;9.00;99.90;;;;;;4994851;28;20584;-63
2023/03/20 17:52:27;;;;;;;0.50;0.50;;;9.00;99.90;;;;;;4995001;28;20194;-63
2023/03/20 17:54:56;;;;;;;0.50;0.50;;;8.90;99.90;;;;;;4994574;28;20705;-63
2023/03/20 17:57:27;;;;;;;0.50;0.50;;;8.90;99.90;;;;;;4994710;28;20753;-64
2023/03/20 17:59:53;;;;;;;0.50;0.50;;;8.80;99.90;;;;;;4994865;28;20597;-64
2023/03/20 18:02:20;;;;;;;0.55;0.55;;;8.80;99.90;;;;;;4994797;28;20223;-64
2023/03/20 18:04:47;;;;;;;0.50;0.50;;;8.70;99.90;;;;;;4994937;28;20229;-66
2023/03/20 18:07:16;;;;;;;0.43;0.43;;;8.70;99.90;;;;;;4994898;28;20203;-64
2023/03/20 18:09:43;;;;;;;0.50;0.50;;;8.70;99.90;;;;;;4994933;28;20231;-65
2023/03/20 18:12:13;;;;;;;1.67;0.60;;;8.60;99.90;;;;;;4994990;28;20187;-64
2023/03/20 18:14:40;;;;;;;0.50;0.50;;;8.60;99.90;;;;;;4994798;28;20309;-64
2023/03/20 18:17:07;;;;;;;2.65;0.60;;;8.60;99.90;;;;;;4994555;28;20213;-64
2023/03/20 18:19:34;;;;;;;0.73;0.63;;;8.60;99.90;;;;;;4994321;28;20614;-64
2023/03/20 18:22:01;;;;;;;1.20;1.00;;;8.50;99.90;;;;;;4994228;28;20219;-63
2023/03/20 18:24:28;;;;;;;2.13;1.35;;;8.50;99.90;;;;;;4994507;28;20223;-62
2023/03/20 18:26:55;;;;;;;1.30;1.20;;;8.50;99.90;;;;;;4994524;28;20206;-64
2023/03/20 18:29:23;;;;;;;1.48;1.48;;;8.40;99.90;;;;;;4994436;28;20206;-63
2023/03/20 18:31:50;;;;;;;1.65;1.27;;;8.40;99.90;;;;;;4994419;28;20202;-64
2023/03/20 18:34:17;;;;;;;0.93;0.93;;;8.40;99.90;;;;;;4994242;28;20222;-64
2023/03/20 18:36:45;;;;;;;1.08;1.08;;;8.40;99.90;;;;;;4994320;28;20226;-64
2023/03/20 18:39:17;;;;;;;0.90;0.90;;;8.30;99.90;;;;;;4994474;28;20195;-64
2023/03/20 18:41:44;;;;;;;0.63;0.63;;;8.30;99.90;;;;;;4994297;28;20246;-64
2023/03/20 18:44:11;;;;;;;0.60;0.60;;;8.30;99.90;;;;;;4994137;28;20218;-64
2023/03/20 18:46:39;;;;;;;1.60;0.60;;;8.30;99.90;;;;;;4994294;28;20183;-64
2023/03/20 18:49:06;;;;;;;0.50;0.50;;;8.30;99.90;;;;;;4994421;28;20210;-64
2023/03/20 18:51:33;;;;;;;0.60;0.60;;;8.30;99.90;;;;;;4995331;28;20680;-65
2023/03/20 18:54:00;;;;;;;0.70;0.70;;;8.30;99.90;;;;;;4998460;28;20210;-63
2023/03/20 18:56:27;;;;;;;0.55;0.55;;;8.20;99.90;;;;;;4998521;28;20206;-64
2023/03/20 18:58:54;;;;;;;0.80;0.80;;;8.30;99.90;;;;;;4998392;28;20216;-64
2023/03/20 19:01:21;;;;;;;0.70;0.70;;;8.20;99.90;;;;;;4998078;28;20222;-64
2023/03/20 19:03:49;;;;;;;0.65;0.65;;;8.20;99.90;;;;;;4998706;28;20206;-64
2023/03/20 19:06:18;;;;;;;0.50;0.50;;;8.20;99.90;;;;;;4998285;28;20313;-63
2023/03/20 19:08:46;;;;;;;0.60;0.60;;;8.20;99.90;;;;;;4998330;28;20202;-63
2023/03/20 19:11:14;;;;;;;0.50;0.50;;;8.20;99.90;;;;;;4998010;28;20202;-63
2023/03/20 19:13:44;;;;;;;0.60;0.60;;;8.10;99.90;;;;;;4998061;28;20202;-62
2023/03/20 19:16:23;;;;;;;0.60;0.60;;;8.10;99.90;;;;;;4997909;28;20276;-63
2023/03/20 19:18:51;;;;;;;0.63;0.63;;;8.00;99.90;;;;;;4997986;28;20198;-62
2023/03/20 19:21:18;;;;;;;0.60;0.60;;;8.00;99.90;;;;;;4997738;28;20222;-63
2023/03/20 19:23:45;;;;;;;0.70;0.70;;;8.00;99.90;;;;;;4997661;28;20209;-64
2023/03/20 19:26:16;;;;;;;0.80;0.80;;;8.00;99.90;;;;;;4997600;28;20592;-65
2023/03/20 19:28:43;;;;;;;0.50;0.50;;;8.00;99.90;;;;;;4997587;28;20217;-64
2023/03/20 19:31:10;;;;;;;0.60;0.60;;;7.90;99.90;;;;;;4997516;28;20230;-64
2023/03/20 19:33:38;;;;;;;0.60;0.60;;;7.90;99.90;;;;;;4997501;28;20195;-65
2023/03/20 19:36:07;;;;;;;0.50;0.50;;;7.90;99.90;;;;;;4997469;28;20219;-64
2023/03/20 19:38:35;;;;;;;0.70;0.70;;;7.90;99.90;;;;;;4997434;28;20658;-64
2023/03/20 19:41:03;;;;;;;0.80;0.80;;;7.90;99.90;;;;;;4997218;28;20293;-64
2023/03/20 19:43:30;;;;;;;0.65;0.65;;;7.80;99.90;;;;;;4997327;28;20206;-64
2023/03/20 19:45:57;;;;;;;0.70;0.70;;;7.70;99.90;;;;;;4996972;28;20239;-64
2023/03/20 19:48:26;;;;;;;0.70;0.70;;;7.70;99.90;;;;;;4997368;28;20554;-64
2023/03/20 19:50:55;;;;;;;0.60;0.60;;;7.60;99.90;;;;;;4997277;28;20202;-64
2023/03/20 19:53:26;;;;;;;0.50;0.50;;;7.60;99.90;;;;;;4998001;28;20202;-63
2023/03/20 19:55:54;;;;;;;0.70;0.70;;;7.50;99.90;;;;;;4997309;28;20222;-64
2023/03/20 19:58:20;;;;;;;0.90;0.70;;;7.50;99.90;;;;;;4997244;28;20203;-63
2023/03/20 20:00:49;;;;;;;0.85;0.85;;;7.50;99.90;;;;;;4997030;28;20218;-64
2023/03/20 20:03:19;;;;;;;0.90;0.90;;;7.50;99.90;;;;;;4995288;28;20749;-65
2023/03/20 20:05:46;;;;;;;0.85;0.85;;;7.50;99.90;;;;;;4997129;28;20226;-63
2023/03/20 20:08:14;;;;;;;0.82;0.82;;;7.40;99.90;;;;;;4996918;28;20214;-63
2023/03/20 20:10:44;;;;;;;0.80;0.80;;;7.40;99.90;;;;;;4996910;28;20206;-64
2023/03/20 20:13:15;;;;;;;0.80;0.80;;;7.40;99.90;;;;;;4996788;28;20253;-64
2023/03/20 20:15:42;;;;;;;0.80;0.80;;;7.40;99.90;;;;;;4996803;28;20265;-63
2023/03/20 20:18:09;;;;;;;1.00;1.00;;;7.30;99.90;;;;;;4996769;28;20209;-64
2023/03/20 20:20:35;;;;;;;1.00;1.00;;;7.30;99.90;;;;;;4996752;28;20202;-63
2023/03/20 20:23:02;;;;;;;0.88;0.88;;;7.20;99.90;;;;;;4996548;28;20247;-63
2023/03/20 20:25:29;;;;;;;0.90;0.90;;;7.20;99.90;;;;;;4996901;28;20231;-63
2023/03/20 20:27:57;;;;;;;0.90;0.90;;;7.10;99.90;;;;;;4996857;28;20270;-64
2023/03/20 20:30:24;;;;;;;0.90;0.90;;;7.20;99.90;;;;;;4996659;28;20206;-65
2023/03/20 20:32:53;;;;;;;0.82;0.80;;;7.10;99.90;;;;;;4996570;28;20202;-66
2023/03/20 20:35:21;;;;;;;0.88;0.88;;;7.00;99.90;;;;;;4996415;28;20222;-66
2023/03/20 20:37:48;;;;;;;0.80;0.80;;;7.10;99.90;;;;;;4996540;28;20206;-65
2023/03/20 20:40:17;;;;;;;1.05;1.05;;;7.00;99.90;;;;;;4996346;28;20202;-65
2023/03/20 20:42:45;;;;;;;0.88;0.88;;;7.00;99.90;;;;;;4995922;28;20265;-65
2023/03/20 20:45:14;;;;;;;0.70;0.70;;;7.00;99.90;;;;;;4996173;28;20353;-65
2023/03/20 20:47:41;;;;;;;0.82;0.82;;;7.00;99.90;;;;;;4996474;28;20206;-64
2023/03/20 20:50:10;;;;;;;0.63;0.63;;;7.00;99.90;;;;;;4996176;28;20211;-64
2023/03/20 20:52:38;;;;;;;0.75;0.75;;;7.00;99.90;;;;;;4996261;28;20199;-65
2023/03/20 20:55:07;;;;;;;0.70;0.70;;;7.00;99.90;;;;;;4996159;28;20219;-65
2023/03/20 20:57:33;;;;;;;0.80;0.80;;;7.10;99.90;;;;;;4996028;28;20241;-66
2023/03/20 21:00:00;;;;;;;0.70;0.70;;;7.10;99.90;;;;;;4995580;28;20689;-65
2023/03/20 21:02:30;;;;;;;0.63;0.63;;;7.10;99.90;;;;;;4996091;28;20214;-66
2023/03/20 21:04:57;;;;;;;0.85;0.85;;;7.10;99.90;;;;;;4995942;28;20600;-65
2023/03/20 21:07:25;;;;;;;0.70;0.70;;;7.10;99.90;;;;;;4996047;28;20203;-65
2023/03/20 21:09:51;;;;;;;0.73;0.73;;;7.10;99.90;;;;;;4995736;28;20203;-65
2023/03/20 21:12:19;;;;;;;0.63;0.63;;;7.00;99.90;;;;;;4995892;28;20199;-65
2023/03/20 21:14:46;;;;;;;0.70;0.70;;;7.00;99.90;;;;;;4995420;28;20710;-65
2023/03/20 21:17:12;;;;;;;0.60;0.60;;;7.00;99.90;;;;;;4995509;28;20685;-65
2023/03/20 21:19:42;;;;;;;0.60;0.60;;;7.00;99.90;;;;;;4996286;28;20207;-65
2023/03/20 21:22:10;;;;;;;0.80;0.63;;;7.00;99.90;;;;;;4995706;28;20253;-65
2023/03/20 21:24:38;;;;;;;1.05;0.93;;;6.90;99.90;;;;;;4995730;28;20222;-65
